Time;durP1;ratioP1;P1;durP2;ratioP2;P2;SDS_P1;SDS_P2;PMS_P1;PMS_P2;Temp;Humidity;BMP_temperature;BMP_pressure;BME280_temperature;BME280_humidity;BME280_pressure;Samples;Min_cycle;Max_cycle;Signal;HPM_P1;HPM_P2
2021/10/04 00:02:06;;;;;;;9.32;2.70;;;;;;;12.35;75.16;101044.63;5033455;28;20124;-63
2021/10/04 00:04:33;;;;;;;11.10;2.90;;;;;;;12.38;75.98;101045.16;5030616;28;20124;-64
2021/10/04 00:07:00;;;;;;;7.43;2.75;;;;;;;12.34;75.41;101045.66;5030916;28;20041;-64
2021/10/04 00:09:27;;;;;;;8.88;2.55;;;;;;;12.43;75.12;101055.34;5038013;28;20040;-64
2021/10/04 00:11:54;;;;;;;12.27;2.20;;;;;;;12.37;75.24;101064.78;5052895;28;20037;-64
2021/10/04 00:14:21;;;;;;;9.25;2.40;;;;;;;12.38;74.54;101073.59;5051788;28;20037;-64
2021/10/04 00:16:50;;;;;;;9.13;1.85;;;;;;;12.40;74.03;101072.44;5052949;28;20497;-64
2021/10/04 00:19:18;;;;;;;8.00;2.08;;;;;;;12.33;73.74;101078.56;5049657;28;20037;-64
2021/10/04 00:21:44;;;;;;;10.80;1.90;;;;;;;12.36;73.84;101083.56;5043541;28;20041;-64
2021/10/04 00:24:11;;;;;;;7.57;2.30;;;;;;;12.32;73.97;101072.41;5061477;28;20059;-64
2021/10/04 00:26:38;;;;;;;10.48;2.15;;;;;;;12.34;75.18;101077.56;5070979;28;20048;-64
2021/10/04 00:29:05;;;;;;;8.80;2.20;;;;;;;12.27;74.18;101085.34;5071300;28;20036;-64
2021/10/04 00:31:32;;;;;;;5.78;1.83;;;;;;;12.27;75.49;101094.13;5071780;28;20036;-64
2021/10/04 00:34:00;;;;;;;11.48;2.10;;;;;;;12.33;74.94;101099.84;5070932;28;20040;-64
2021/10/04 00:36:27;;;;;;;7.38;1.80;;;;;;;12.32;74.51;101103.50;5072455;28;20056;-64
2021/10/04 00:38:54;;;;;;;8.32;2.33;;;;;;;12.26;75.07;101100.47;5071737;28;20033;-64
2021/10/04 00:41:21;;;;;;;5.47;2.00;;;;;;;12.27;75.17;101103.94;5067739;28;20043;-64
2021/10/04 00:43:47;;;;;;;6.13;1.90;;;;;;;12.26;75.16;101105.78;5043146;28;20040;-64
2021/10/04 00:46:15;;;;;;;9.10;1.92;;;;;;;12.31;74.75;101107.13;5071940;28;20040;-64
2021/10/04 00:48:41;;;;;;;10.38;1.95;;;;;;;12.17;74.87;101087.25;5054375;28;20041;-64
2021/10/04 00:51:08;;;;;;;7.50;2.03;;;;;;;12.10;75.29;101085.22;5071260;28;20051;-64
2021/10/04 00:53:35;;;;;;;8.52;2.92;;;;;;;12.21;74.14;101094.78;5071065;28;20049;-64
2021/10/04 00:56:02;;;;;;;4.72;1.75;;;;;;;12.15;75.59;101095.41;5062328;28;20041;-64
2021/10/04 00:58:29;;;;;;;10.23;2.03;;;;;;;12.15;74.96;101087.44;5072299;28;20040;-64
2021/10/04 01:00:56;;;;;;;5.55;2.00;;;;;;;12.07;76.08;101085.53;5059979;28;20047;-64
2021/10/04 01:03:23;;;;;;;7.38;1.77;;;;;;;12.09;75.66;101080.88;5071411;28;20052;-64
2021/10/04 01:05:49;;;;;;;7.70;2.10;;;;;;;12.11;75.28;101094.03;5070532;28;20492;-64
2021/10/04 01:08:16;;;;;;;6.63;1.95;;;;;;;12.17;74.50;101092.56;5070837;28;20040;-64
2021/10/04 01:10:43;;;;;;;6.57;1.85;;;;;;;12.06;75.42;101096.31;5059824;28;20046;-64
2021/10/04 01:13:10;;;;;;;8.93;1.90;;;;;;;12.15;76.09;101103.41;5065535;28;20091;-64
2021/10/04 01:15:36;;;;;;;4.65;1.80;;;;;;;12.13;75.39;101108.00;5052412;28;21002;-64
2021/10/04 01:18:06;;;;;;;6.28;2.70;;;;;;;12.10;76.34;101108.34;5072395;28;20045;-64
2021/10/04 01:20:34;;;;;;;6.45;1.88;;;;;;;12.12;75.52;101110.84;5070835;28;20055;-64
2021/10/04 01:23:01;;;;;;;7.88;1.70;;;;;;;12.07;76.16;101112.13;5071810;28;20489;-64
2021/10/04 01:25:29;;;;;;;4.72;1.95;;;;;;;12.14;76.64;101111.53;5072288;28;20041;-64
2021/10/04 01:27:56;;;;;;;7.47;1.98;;;;;;;12.18;75.86;101118.19;5071226;28;20094;-64
2021/10/04 01:30:28;;;;;;;6.63;1.95;;;;;;;12.13;75.78;101121.31;5071658;28;20051;-64
2021/10/04 01:32:56;;;;;;;4.25;1.67;;;;;;;12.13;75.37;101125.78;5056496;28;20043;-64
2021/10/04 01:35:23;;;;;;;6.18;1.80;;;;;;;12.09;75.47;101122.59;5071634;28;20169;-65
2021/10/04 01:37:51;;;;;;;4.80;1.92;;;;;;;12.09;75.91;101122.59;5070629;28;20130;-64
2021/10/04 01:40:18;;;;;;;5.57;1.80;;;;;;;12.10;76.64;101108.34;5064693;28;20033;-64
2021/10/04 01:42:46;;;;;;;6.45;1.90;;;;;;;12.12;75.97;101113.50;5069068;28;20040;-64
2021/10/04 01:45:19;;;;;;;5.05;1.70;;;;;;;12.13;75.75;101126.63;5068832;28;20037;-64
2021/10/04 01:47:46;;;;;;;4.70;1.67;;;;;;;12.23;76.80;101129.19;5072385;28;20050;-64
2021/10/04 01:50:14;;;;;;;5.65;1.90;;;;;;;12.16;76.35;101128.16;5068106;28;20095;-64
2021/10/04 01:52:41;;;;;;;7.20;1.80;;;;;;;12.22;76.38;101125.69;5066144;28;20095;-64
2021/10/04 01:55:10;;;;;;;5.60;1.90;;;;;;;12.17;75.71;101114.72;5055593;28;20047;-64
2021/10/04 01:57:37;;;;;;;9.57;2.28;;;;;;;12.16;76.64;101112.19;5065402;28;20067;-64
2021/10/04 02:00:08;;;;;;;6.15;1.92;;;;;;;12.15;76.33;101108.72;5053759;28;20098;-64
2021/10/04 02:02:39;;;;;;;7.78;1.90;;;;;;;12.06;77.35;101109.63;5055757;28;20452;-64
2021/10/04 02:05:07;;;;;;;14.48;2.10;;;;;;;12.06;77.46;101107.81;5053690;28;20041;-64
2021/10/04 02:07:36;;;;;;;10.35;2.15;;;;;;;12.14;76.29;101115.00;5055584;28;20036;-64
2021/10/04 02:10:07;;;;;;;5.82;1.95;;;;;;;12.05;77.63;101107.97;5061098;28;20052;-64
2021/10/04 02:12:34;;;;;;;7.10;2.08;;;;;;;12.07;77.67;101104.16;5035540;28;20049;-64
2021/10/04 02:15:01;;;;;;;7.32;2.08;;;;;;;12.08;76.42;101108.47;5035143;28;20045;-64
2021/10/04 02:17:30;;;;;;;8.57;1.77;;;;;;;12.08;77.59;101116.47;5035544;28;20489;-64
2021/10/04 02:19:57;;;;;;;6.05;1.90;;;;;;;12.11;77.23;101110.00;5023096;28;20432;-64
2021/10/04 02:22:24;;;;;;;6.78;1.90;;;;;;;12.07;77.98;101113.97;5035412;28;20049;-64
2021/10/04 02:24:51;;;;;;;7.43;2.10;;;;;;;11.98;78.01;101120.19;5054647;28;20037;-64
2021/10/04 02:27:18;;;;;;;5.03;1.80;;;;;;;12.00;77.74;101112.91;5054783;28;20037;-64
2021/10/04 02:29:45;;;;;;;7.80;1.90;;;;;;;12.00;77.93;101112.91;5054805;28;20040;-64
2021/10/04 02:32:11;;;;;;;7.03;2.03;;;;;;;12.02;77.75;101111.75;5054423;28;20401;-64
2021/10/04 02:34:38;;;;;;;6.28;2.03;;;;;;;11.87;77.95;101105.28;5053150;28;20064;-64
2021/10/04 02:37:05;;;;;;;5.53;1.98;;;;;;;11.86;77.96;101104.47;5052945;28;20048;-64
2021/10/04 02:39:32;;;;;;;5.32;1.90;;;;;;;11.91;78.48;101114.66;5051741;28;20037;-64
2021/10/04 02:41:58;;;;;;;6.90;1.85;;;;;;;11.88;77.78;101109.63;5054509;28;20045;-64
2021/10/04 02:44:25;;;;;;;5.40;1.90;;;;;;;11.89;77.47;101113.94;5054182;28;20040;-64
2021/10/04 02:46:52;;;;;;;8.70;2.30;;;;;;;11.93;77.97;101120.66;5054118;28;20515;-64
2021/10/04 02:49:19;;;;;;;8.88;2.03;;;;;;;11.85;78.63;101117.91;5054525;28;20049;-64
2021/10/04 02:51:46;;;;;;;4.90;1.98;;;;;;;11.85;78.93;101120.56;5036797;28;20051;-64
2021/10/04 02:54:14;;;;;;;7.05;2.08;;;;;;;11.81;77.95;101117.38;5069823;28;20051;-64
2021/10/04 02:56:41;;;;;;;9.20;2.35;;;;;;;11.82;78.69;101112.88;5052786;28;20083;-64
2021/10/04 02:59:11;;;;;;;9.45;2.08;;;;;;;11.82;78.43;101118.19;5054355;28;20041;-64
2021/10/04 03:01:37;;;;;;;6.53;2.20;;;;;;;11.81;78.95;101125.34;5053897;28;20045;-64
2021/10/04 03:04:04;;;;;;;9.43;2.10;;;;;;;11.87;78.57;101130.03;5069592;28;20049;-64
2021/10/04 03:06:31;;;;;;;7.65;2.03;;;;;;;11.82;79.08;101131.50;5052356;28;20094;-64
2021/10/04 03:08:57;;;;;;;8.80;2.00;;;;;;;11.83;78.96;101139.31;5052488;28;20076;-64
2021/10/04 03:11:24;;;;;;;8.23;2.00;;;;;;;11.82;78.15;101139.47;5053837;28;20095;-64
2021/10/04 03:13:51;;;;;;;10.15;2.10;;;;;;;11.80;78.75;101146.75;5052825;28;20041;-64
2021/10/04 03:16:17;;;;;;;8.32;2.20;;;;;;;11.81;78.15;101149.28;5053427;28;20086;-65
2021/10/04 03:18:44;;;;;;;7.43;2.15;;;;;;;11.85;78.71;101147.97;5052906;28;20041;-64
2021/10/04 03:21:11;;;;;;;8.88;2.00;;;;;;;11.95;78.03;101150.59;5069340;28;20040;-64
2021/10/04 03:23:38;;;;;;;4.25;2.05;;;;;;;11.85;78.12;101163.91;5038675;28;20071;-64
2021/10/04 03:26:05;;;;;;;6.50;2.13;;;;;;;11.96;77.69;101175.34;5052446;28;20048;-64
2021/10/04 03:28:32;;;;;;;8.20;3.05;;;;;;;11.97;78.14;101179.66;5053903;28;20133;-64
2021/10/04 03:30:59;;;;;;;5.18;1.90;;;;;;;11.92;78.38;101190.78;5053464;28;20097;-64
2021/10/04 03:33:25;;;;;;;7.13;2.42;;;;;;;11.97;78.14;101195.63;5050620;28;20350;-64
2021/10/04 03:35:52;;;;;;;7.00;2.17;;;;;;;11.93;78.10;101189.78;5053284;28;20052;-64
2021/10/04 03:38:19;;;;;;;6.22;1.92;;;;;;;11.99;78.04;101186.53;5052041;28;20040;-64
2021/10/04 03:40:45;;;;;;;6.28;1.98;;;;;;;11.95;78.80;101190.47;5053760;28;20041;-64
2021/10/04 03:43:12;;;;;;;6.88;2.33;;;;;;;11.95;77.44;101193.13;5042902;28;20119;-64
2021/10/04 03:45:39;;;;;;;7.47;2.17;;;;;;;12.01;77.52;101194.34;5060588;28;20037;-64
2021/10/04 03:48:06;;;;;;;6.93;2.10;;;;;;;11.97;77.83;101195.63;5052159;28;20044;-64
2021/10/04 03:50:33;;;;;;;7.88;2.25;;;;;;;12.04;77.59;101197.53;5053452;28;20056;-64
2021/10/04 03:53:00;;;;;;;6.40;2.17;;;;;;;12.00;77.33;101197.97;5053111;28;20053;-63
2021/10/04 03:55:26;;;;;;;7.47;2.20;;;;;;;12.06;78.09;101195.56;5051829;28;20037;-64
2021/10/04 03:57:53;;;;;;;7.20;2.28;;;;;;;12.00;76.85;101196.16;5057585;28;20043;-64
2021/10/04 04:00:22;;;;;;;9.93;2.30;;;;;;;12.09;76.65;101205.88;5072658;28;20124;-64
2021/10/04 04:02:49;;;;;;;8.60;2.10;;;;;;;12.08;76.61;101201.56;5072775;28;20044;-64
2021/10/04 04:05:17;;;;;;;7.93;2.00;;;;;;;12.07;77.04;101205.19;5061039;28;20032;-64
2021/10/04 04:07:45;;;;;;;7.95;1.92;;;;;;;12.15;77.08;101206.25;5048234;28;20489;-64
2021/10/04 04:10:16;;;;;;;10.35;2.15;;;;;;;12.07;77.08;101207.03;5051757;28;20485;-64
2021/10/04 04:12:43;;;;;;;6.57;2.00;;;;;;;12.12;77.21;101204.75;5053458;28;20415;-64
2021/10/04 04:15:11;;;;;;;9.00;2.30;;;;;;;12.08;76.78;101206.06;5052735;28;20695;-64
2021/10/04 04:17:38;;;;;;;10.10;2.28;;;;;;;12.07;76.56;101202.53;5053225;28;20485;-64
2021/10/04 04:20:07;;;;;;;9.13;2.42;;;;;;;12.08;76.16;101195.41;5047978;28;20041;-64
2021/10/04 04:22:33;;;;;;;8.30;2.20;;;;;;;12.08;76.90;101206.88;5046385;28;20389;-64
2021/10/04 04:25:02;;;;;;;8.55;2.30;;;;;;;12.06;77.40;101200.03;5072428;28;20045;-64
2021/10/04 04:27:30;;;;;;;5.97;2.00;;;;;;;12.09;76.75;101189.91;5051747;28;20400;-64
2021/10/04 04:29:58;;;;;;;8.85;2.10;;;;;;;12.15;76.84;101200.94;5072623;28;20036;-64
2021/10/04 04:32:25;;;;;;;10.98;2.17;;;;;;;12.10;76.96;101206.72;5072373;28;20045;-64
2021/10/04 04:34:51;;;;;;;8.75;2.03;;;;;;;12.20;76.73;101204.81;5036327;28;20500;-64
2021/10/04 04:37:18;;;;;;;9.27;2.63;;;;;;;12.15;76.19;101204.44;5072295;28;20044;-64
2021/10/04 04:39:45;;;;;;;8.50;2.20;;;;;;;12.12;76.20;101194.13;5065888;28;20045;-63
2021/10/04 04:42:12;;;;;;;9.60;2.33;;;;;;;12.12;76.63;101198.59;5072612;28;20040;-64
2021/10/04 04:44:39;;;;;;;9.07;2.35;;;;;;;12.12;77.20;101199.44;5071272;28;20045;-64
2021/10/04 04:47:05;;;;;;;5.50;1.98;;;;;;;12.16;77.30;101194.66;5072120;28;20043;-64
2021/10/04 04:49:32;;;;;;;6.75;2.35;;;;;;;12.12;77.39;101191.44;5072791;28;20046;-64
2021/10/04 04:51:59;;;;;;;5.88;2.15;;;;;;;12.08;76.75;101198.06;5072177;28;20041;-64
2021/10/04 04:54:27;;;;;;;7.70;2.30;;;;;;;12.17;77.05;101194.50;5072346;28;20443;-63
2021/10/04 04:56:54;;;;;;;8.18;2.40;;;;;;;12.17;77.21;101193.63;5071087;28;20492;-63
2021/10/04 04:59:22;;;;;;;6.28;2.22;;;;;;;12.12;77.43;101195.94;5059031;28;20547;-64
2021/10/04 05:01:49;;;;;;;7.47;2.33;;;;;;;12.09;77.75;101207.72;5051745;28;20048;-64
2021/10/04 05:04:16;;;;;;;10.60;2.40;;;;;;;12.07;78.08;101209.69;5051136;28;20047;-64
2021/10/04 05:06:43;;;;;;;9.18;2.60;;;;;;;12.07;78.16;101213.16;5050929;28;20045;-64
2021/10/04 05:09:10;;;;;;;9.75;2.45;;;;;;;12.08;78.41;101220.19;5051684;28;20045;-64
2021/10/04 05:11:37;;;;;;;7.53;2.30;;;;;;;11.96;77.25;101232.00;5050899;28;20049;-64
2021/10/04 05:14:04;;;;;;;8.48;2.35;;;;;;;12.13;77.74;101227.69;5052436;28;20497;-64
2021/10/04 05:16:31;;;;;;;5.47;2.15;;;;;;;12.13;77.35;101225.03;5052229;28;20128;-64
2021/10/04 05:18:58;;;;;;;11.82;2.33;;;;;;;12.07;77.56;101228.31;5053800;28;20095;-64
2021/10/04 05:21:25;;;;;;;9.90;2.55;;;;;;;12.07;77.66;101236.28;5055100;28;20060;-63
2021/10/04 05:23:51;;;;;;;8.77;2.63;;;;;;;12.13;78.17;101245.47;5055991;28;20037;-63
2021/10/04 05:26:18;;;;;;;9.88;2.60;;;;;;;12.09;77.75;101235.13;5055272;28;20048;-63
2021/10/04 05:28:45;;;;;;;8.07;2.28;;;;;;;12.14;77.58;101240.00;5054918;28;20041;-63
2021/10/04 05:31:12;;;;;;;11.07;2.22;;;;;;;12.20;76.38;101235.91;5038332;28;20102;-63
2021/10/04 05:33:39;;;;;;;7.78;2.47;;;;;;;12.18;77.22;101232.56;5035050;28;20039;-63
2021/10/04 05:36:07;;;;;;;7.63;2.30;;;;;;;12.20;77.65;101234.06;5045157;28;20053;-65
2021/10/04 05:38:34;;;;;;;7.50;2.00;;;;;;;12.20;76.61;101246.53;5063047;28;20511;-63
2021/10/04 05:41:00;;;;;;;11.00;2.30;;;;;;;12.23;76.74;101247.06;5069277;28;20068;-63
2021/10/04 05:43:27;;;;;;;9.02;2.40;;;;;;;12.23;76.28;101255.03;5071277;28;20051;-63
2021/10/04 05:45:54;;;;;;;6.60;2.30;;;;;;;12.21;76.89;101254.38;5074881;28;20045;-63
2021/10/04 05:48:20;;;;;;;11.30;2.50;;;;;;;12.22;76.37;101263.16;5074104;28;20485;-63
2021/10/04 05:50:49;;;;;;;11.98;3.30;;;;;;;12.24;76.87;101262.06;5074990;28;20043;-63
2021/10/04 05:53:17;;;;;;;8.18;2.40;;;;;;;12.27;75.78;101272.38;5074688;28;20090;-63
2021/10/04 05:55:48;;;;;;;6.53;2.85;;;;;;;12.35;76.05;101276.94;5075078;28;20048;-63
2021/10/04 05:58:15;;;;;;;8.40;2.80;;;;;;;12.29;76.20;101274.88;5069806;28;20033;-63
2021/10/04 06:00:43;;;;;;;10.00;2.75;;;;;;;12.34;76.84;101266.44;5074484;28;20071;-63
2021/10/04 06:03:10;;;;;;;9.30;2.92;;;;;;;12.34;76.34;101282.41;5058741;28;20404;-63
2021/10/04 06:05:36;;;;;;;10.77;2.65;;;;;;;12.31;76.13;101280.06;5054992;28;20067;-63
2021/10/04 06:08:03;;;;;;;9.73;2.80;;;;;;;12.37;76.78;101295.38;5053755;28;20065;-63
2021/10/04 06:10:30;;;;;;;12.05;2.90;;;;;;;12.34;76.40;101301.88;5055324;28;20033;-63
2021/10/04 06:12:57;;;;;;;11.07;3.78;;;;;;;12.34;76.34;101317.00;5051310;28;20124;-63
2021/10/04 06:15:24;;;;;;;13.63;3.50;;;;;;;12.32;75.68;101322.47;5037459;28;20041;-63
2021/10/04 06:17:51;;;;;;;11.02;3.28;;;;;;;12.32;76.18;101332.28;5054987;28;20052;-63
2021/10/04 06:20:18;;;;;;;11.55;3.53;;;;;;;12.32;75.88;101338.44;5049510;28;20497;-63
2021/10/04 06:22:45;;;;;;;9.30;3.25;;;;;;;12.41;76.47;101334.03;5063712;28;20051;-63
2021/10/04 06:25:14;;;;;;;12.88;3.45;;;;;;;12.44;75.87;101333.72;5074707;28;20102;-63
2021/10/04 06:27:43;;;;;;;11.50;3.70;;;;;;;12.49;75.33;101326.94;5073474;28;20386;-63
2021/10/04 06:30:11;;;;;;;16.38;4.70;;;;;;;12.51;75.86;101340.09;5068324;28;20099;-63
2021/10/04 06:32:38;;;;;;;15.13;3.72;;;;;;;12.53;76.30;101351.41;5066766;28;20511;-63
2021/10/04 06:35:06;;;;;;;14.15;3.20;;;;;;;12.51;75.52;101344.59;5072538;28;20040;-64
2021/10/04 06:37:32;;;;;;;11.13;3.03;;;;;;;12.53;75.58;101347.94;5074382;28;20071;-63
2021/10/04 06:39:59;;;;;;;9.00;2.60;;;;;;;12.46;75.12;101361.00;5071556;28;20047;-63
2021/10/04 06:42:26;;;;;;;10.45;2.58;;;;;;;12.46;75.77;101359.19;5074481;28;20602;-63
2021/10/04 06:44:53;;;;;;;11.95;2.58;;;;;;;12.54;75.39;101362.94;5056314;28;20079;-63
2021/10/04 06:47:21;;;;;;;10.48;2.60;;;;;;;12.44;75.46;101361.19;5072768;28;20396;-63
2021/10/04 06:49:48;;;;;;;7.15;2.30;;;;;;;12.45;75.58;101359.34;5072779;28;20040;-63
2021/10/04 06:52:15;;;;;;;7.72;2.28;;;;;;;12.39;75.32;101339.50;5072478;28;20044;-64
2021/10/04 06:54:42;;;;;;;10.05;2.45;;;;;;;12.47;75.93;101328.09;5049329;28;20045;-64
2021/10/04 06:57:09;;;;;;;8.85;2.28;;;;;;;12.50;75.53;101346.44;5041799;28;20037;-64
2021/10/04 06:59:36;;;;;;;10.93;2.25;;;;;;;12.48;75.04;101346.56;5073307;28;20052;-64
2021/10/04 07:02:03;;;;;;;6.35;2.28;;;;;;;12.53;75.68;101348.75;5056117;28;20048;-64
2021/10/04 07:04:30;;;;;;;7.13;2.35;;;;;;;12.53;74.83;101334.63;5053458;28;20045;-64
2021/10/04 07:06:57;;;;;;;7.72;2.70;;;;;;;12.64;76.00;101339.72;5052349;28;20065;-64
2021/10/04 07:09:24;;;;;;;9.45;2.72;;;;;;;12.67;75.48;101350.88;5053720;28;20045;-64
2021/10/04 07:11:50;;;;;;;10.40;2.85;;;;;;;12.82;73.96;101359.19;5054067;28;20044;-64
2021/10/04 07:14:17;;;;;;;8.23;3.08;;;;;;;12.85;74.70;101352.72;5054327;28;20468;-64
2021/10/04 07:16:44;;;;;;;11.85;3.10;;;;;;;12.86;74.38;101359.69;5054086;28;20045;-64
2021/10/04 07:19:11;;;;;;;12.30;2.92;;;;;;;12.98;75.11;101362.97;5052568;28;20512;-64
2021/10/04 07:21:38;;;;;;;9.23;2.58;;;;;;;12.99;73.44;101368.16;5040748;28;20490;-64
2021/10/04 07:24:05;;;;;;;9.85;3.00;;;;;;;12.94;73.08;101367.75;5051143;28;20102;-64
2021/10/04 07:26:32;;;;;;;11.75;2.65;;;;;;;12.98;74.61;101385.09;5061637;28;20044;-64
2021/10/04 07:29:00;;;;;;;8.10;2.60;;;;;;;13.06;73.15;101377.19;5073562;28;20427;-64
2021/10/04 07:31:28;;;;;;;7.20;2.30;;;;;;;13.02;73.21;101367.84;5073564;28;20389;-64
2021/10/04 07:33:57;;;;;;;11.95;3.05;;;;;;;13.01;74.15;101362.66;5072160;28;20045;-64
2021/10/04 07:36:24;;;;;;;10.85;2.53;;;;;;;13.01;73.26;101375.97;5059752;28;20049;-64
2021/10/04 07:38:50;;;;;;;11.38;2.70;;;;;;;13.09;72.62;101364.53;5057838;28;20414;-64
2021/10/04 07:41:17;;;;;;;7.97;2.35;;;;;;;13.10;74.08;101358.22;5052772;28;20037;-64
2021/10/04 07:43:44;;;;;;;9.15;2.72;;;;;;;13.16;73.47;101363.75;5064812;28;20044;-65
2021/10/04 07:46:11;;;;;;;7.03;2.80;;;;;;;13.28;73.19;101363.50;5071500;28;20072;-64
2021/10/04 07:48:37;;;;;;;12.63;3.00;;;;;;;13.33;73.42;101366.56;5073470;28;20409;-64
2021/10/04 07:51:05;;;;;;;10.15;2.97;;;;;;;13.38;73.07;101370.44;5081152;28;20060;-64
2021/10/04 07:53:32;;;;;;;11.05;2.80;;;;;;;13.52;71.74;101370.88;5030896;28;20103;-64
2021/10/04 07:55:59;;;;;;;11.18;3.03;;;;;;;13.57;71.56;101366.72;5052725;28;20048;-64
2021/10/04 07:58:26;;;;;;;9.70;2.25;;;;;;;13.52;70.43;101362.88;5052397;28;20064;-64
2021/10/04 08:00:53;;;;;;;13.77;3.47;;;;;;;13.59;71.70;101375.41;5046906;28;20041;-64
2021/10/04 08:03:19;;;;;;;10.32;2.40;;;;;;;13.53;71.65;101383.19;5051030;28;20087;-64
2021/10/04 08:05:46;;;;;;;23.30;10.65;;;;;;;13.57;71.20;101377.38;5050424;28;20075;-64
2021/10/04 08:08:13;;;;;;;10.63;3.78;;;;;;;13.46;72.02;101371.47;5050130;28;20138;-64
2021/10/04 08:10:40;;;;;;;8.07;2.60;;;;;;;13.39;71.75;101376.63;5059717;28;20037;-64
2021/10/04 08:13:06;;;;;;;11.52;2.60;;;;;;;13.40;72.00;101383.59;5052885;28;20041;-64
2021/10/04 08:15:33;;;;;;;14.68;2.50;;;;;;;13.43;71.54;101375.31;5052768;28;20056;-64
2021/10/04 08:18:00;;;;;;;9.77;2.28;;;;;;;13.40;71.74;101384.44;5046641;28;20033;-64
2021/10/04 08:20:27;;;;;;;7.43;2.40;;;;;;;13.40;71.36;101373.78;5052500;28;20049;-64
2021/10/04 08:22:53;;;;;;;11.57;2.67;;;;;;;13.50;73.09;101372.81;5051322;28;20041;-64
2021/10/04 08:25:21;;;;;;;8.60;2.30;;;;;;;13.53;71.71;101373.34;5052203;28;20411;-64
2021/10/04 08:27:48;;;;;;;9.38;2.53;;;;;;;13.51;71.82;101366.50;5052336;28;20037;-64
2021/10/04 08:30:15;;;;;;;10.77;2.83;;;;;;;13.59;71.47;101367.41;5051095;28;20037;-64
2021/10/04 08:32:42;;;;;;;7.85;2.47;;;;;;;13.71;72.06;101378.59;5050257;28;20045;-64
2021/10/04 08:35:09;;;;;;;10.88;2.58;;;;;;;13.72;71.14;101379.47;5056617;28;20052;-65
2021/10/04 08:37:36;;;;;;;11.50;2.65;;;;;;;13.71;71.53;101375.94;5042266;28;20044;-64
2021/10/04 08:40:07;;;;;;;11.07;2.40;;;;;;;13.75;71.91;101371.13;5050946;28;20397;-64
2021/10/04 08:42:34;;;;;;;7.07;2.20;;;;;;;13.87;70.45;101372.53;5064725;28;20128;-64
2021/10/04 08:45:00;;;;;;;7.65;2.20;;;;;;;13.96;70.90;101370.72;5050789;28;20105;-64
2021/10/04 08:47:28;;;;;;;13.55;2.30;;;;;;;14.17;69.33;101378.28;5042167;28;20049;-64
2021/10/04 08:49:54;;;;;;;9.68;2.38;;;;;;;14.08;69.64;101376.59;5063840;28;20053;-64
2021/10/04 08:52:21;;;;;;;11.40;2.42;;;;;;;14.14;70.00;101371.47;5054114;28;20120;-64
2021/10/04 08:54:48;;;;;;;7.53;2.10;;;;;;;14.17;69.13;101375.63;5056017;28;20556;-64
2021/10/04 08:57:15;;;;;;;5.70;1.95;;;;;;;14.19;68.41;101377.16;5055441;28;20506;-64
2021/10/04 08:59:42;;;;;;;8.35;2.25;;;;;;;14.34;69.82;101380.00;5058314;28;20470;-65
2021/10/04 09:02:30;;;;;;;9.68;2.35;;;;;;;14.66;69.16;101375.78;5062693;28;20040;-64
2021/10/04 09:07:49;;;;;;;19.98;9.93;;;;;;;15.22;65.22;101375.91;5110738;27;20757;-64
2021/10/04 09:10:21;;;;;;;12.30;2.33;;;;;;;15.44;64.83;101374.38;5086558;28;20527;-64
2021/10/04 09:12:51;;;;;;;6.78;1.77;;;;;;;16.26;62.72;101387.47;5087560;28;20032;-64
2021/10/04 09:15:21;;;;;;;8.25;2.00;;;;;;;16.71;59.93;101385.00;5073196;28;20048;-63
2021/10/04 09:17:49;;;;;;;6.78;2.00;;;;;;;16.83;59.09;101386.28;5079892;28;20048;-63
2021/10/04 09:20:17;;;;;;;10.15;2.20;;;;;;;17.50;58.01;101368.59;5094163;28;20097;-64
2021/10/04 09:22:44;;;;;;;7.38;1.98;;;;;;;17.62;56.31;101385.88;5077011;28;20086;-64
2021/10/04 09:25:13;;;;;;;5.00;1.83;;;;;;;18.12;56.58;101390.66;5081832;28;20930;-64
2021/10/04 09:27:42;;;;;;;8.00;1.98;;;;;;;18.40;54.58;101391.63;5083256;28;20128;-60
2021/10/04 09:30:23;;;;;;;6.93;1.92;;;;;;;18.54;55.23;101397.16;5088016;28;20045;-64
2021/10/04 09:32:53;;;;;;;10.02;3.28;;;;;;;18.92;53.20;101403.13;5083393;28;20037;-64
2021/10/04 09:35:24;;;;;;;9.05;2.30;;;;;;;19.21;51.17;101403.13;5083878;28;20040;-64
2021/10/04 09:37:53;;;;;;;;;;;;;;;20.29;48.85;101395.47;5083477;28;20128;-64
2021/10/04 09:40:38;;;;;;;5.97;1.60;;;;;;;19.83;48.91;101385.34;5074675;28;19925;-64
2021/10/04 09:43:10;;;;;;;9.52;1.98;;;;;;;19.49;50.98;101387.81;5085467;28;20086;-63
2021/10/04 09:45:36;;;;;;;;;;;;;;;20.82;48.05;101395.63;5077207;28;20052;-64
2021/10/04 09:48:10;;;;;;;8.93;1.80;;;;;;;21.74;46.34;101398.47;5086329;28;19974;-64
2021/10/04 09:50:38;;;;;;;9.25;2.00;;;;;;;21.74;45.14;101395.78;5069829;28;20403;-64
2021/10/04 09:53:10;;;;;;;11.35;2.30;;;;;;;21.53;45.10;101398.72;5085736;28;20036;-64
2021/10/04 09:55:39;;;;;;;7.40;2.00;;;;;;;21.69;45.71;101382.06;5088020;28;20048;-64
2021/10/04 09:58:14;;;;;;;11.30;1.90;;;;;;;21.47;45.83;101390.44;5084110;28;20443;-64
2021/10/04 10:00:55;;;;;;;10.55;2.10;;;;;;;20.22;48.28;101384.69;5087014;28;20055;-64
2021/10/04 10:03:25;;;;;;;8.10;1.80;;;;;;;19.43;50.01;101387.78;5062031;28;20115;-64
2021/10/04 10:05:56;;;;;;;7.40;1.75;;;;;;;18.63;51.10;101384.41;5070204;28;20094;-64
2021/10/04 10:08:25;;;;;;;9.63;2.00;;;;;;;18.13;52.79;101387.78;5086119;28;20123;-63
2021/10/04 10:10:55;;;;;;;16.23;1.98;;;;;;;17.39;56.05;101395.84;5087358;28;20131;-63
2021/10/04 10:13:24;;;;;;;12.43;2.13;;;;;;;17.15;57.21;101399.59;5086528;28;20131;-63
2021/10/04 10:16:28;;;;;;;6.88;2.13;;;;;;;17.84;55.88;101399.38;5085507;28;20440;-63
2021/10/04 10:19:07;;;;;;;11.48;2.30;;;;;;;18.10;54.31;101406.97;5071604;28;20040;-63
2021/10/04 10:21:35;;;;;;;7.90;1.90;;;;;;;17.98;53.79;101395.06;5106077;28;20390;-64
2021/10/04 10:24:07;;;;;;;9.82;1.98;;;;;;;18.49;54.05;101396.88;5071924;28;20037;-63
2021/10/04 10:34:36;;;;;;;9.82;2.17;;;;;;;18.09;54.20;101391.06;5113322;27;20157;-64
2021/10/04 10:37:13;;;;;;;6.47;2.25;;;;;;;17.70;56.41;101393.00;5105393;28;20070;-64
2021/10/04 10:39:45;;;;;;;12.00;2.30;;;;;;;17.15;55.19;101397.72;5077656;28;20050;-64
2021/10/04 10:50:14;;;;;;;8.43;2.42;;;;;;;16.76;58.45;101396.03;5121549;27;20138;-63
2021/10/04 10:52:46;;;;;;;10.43;2.42;;;;;;;16.69;57.78;101392.38;5103365;28;20047;-63
2021/10/04 10:58:00;;;;;;;11.90;2.60;;;;;;;17.02;57.87;101390.31;5146415;27;20367;-64
2021/10/04 11:00:31;;;;;;;;;;;;;;;17.90;55.92;101390.63;5118866;27;20043;-63
2021/10/04 11:03:03;;;;;;;8.20;2.40;;;;;;;18.05;54.70;101384.41;5129322;28;19920;-63
2021/10/04 11:08:11;;;;;;;7.50;2.28;;;;;;;18.94;53.83;101393.00;5126965;27;20748;-64
2021/10/04 11:10:59;;;;;;;7.97;2.30;;;;;;;19.91;49.69;101375.25;5128459;28;20119;-70
2021/10/04 11:18:47;;;;;;;9.25;2.10;;;;;;;20.99;48.09;101387.97;5124374;27;20380;-69
2021/10/04 11:21:19;;;;;;;8.70;2.53;;;;;;;20.55;47.52;101380.41;5093104;27;20047;-71
2021/10/04 11:23:50;;;;;;;8.52;2.38;;;;;;;19.84;49.07;101373.56;5109316;28;20521;-70
2021/10/04 11:26:20;;;;;;;8.68;2.30;;;;;;;20.19;48.60;101376.19;5122242;27;20056;-70
2021/10/04 11:28:50;;;;;;;12.43;2.25;;;;;;;20.57;48.15;101383.72;5129107;27;20575;-70
2021/10/04 11:31:20;;;;;;;9.93;2.20;;;;;;;20.48;47.45;101377.69;5117866;28;20046;-70
2021/10/04 11:33:59;;;;;;;8.02;2.25;;;;;;;20.93;45.91;101380.69;5127506;27;20047;-70
2021/10/04 11:36:31;;;;;;;13.38;2.30;;;;;;;20.04;47.84;101373.63;5105349;28;20453;-70
2021/10/04 11:39:01;;;;;;;12.45;1.90;;;;;;;19.82;49.60;101367.53;5115459;27;20039;-71
2021/10/04 11:41:32;;;;;;;10.07;2.20;;;;;;;19.17;49.56;101367.75;5124612;28;20080;-71
2021/10/04 11:44:02;;;;;;;8.25;1.90;;;;;;;18.75;51.57;101372.13;5110096;27;20035;-71
2021/10/04 11:46:33;;;;;;;9.10;2.00;;;;;;;18.62;53.25;101378.19;5116678;27;20114;-71
2021/10/04 11:49:06;;;;;;;8.68;1.95;;;;;;;18.60;52.96;101370.31;5125392;28;20076;-72
2021/10/04 11:51:36;;;;;;;6.05;2.00;;;;;;;19.26;50.74;101371.94;5121171;27;20396;-71
2021/10/04 11:54:03;;;;;;;7.32;1.92;;;;;;;19.97;49.30;101368.22;5110100;28;20043;-72
2021/10/04 11:56:37;;;;;;;9.05;2.00;;;;;;;19.81;50.35;101364.03;5115818;28;20036;-71
2021/10/04 11:59:04;;;;;;;9.73;2.08;;;;;;;19.95;49.36;101367.59;5117543;27;20451;-71